sensor_id;sensor_type;location;lat;lon;timestamp;temperature;humidity
12115;DHT22;6121;49.810;6.418;2023-08-01T00:01:38;18.40;99.90
12115;DHT22;6121;49.810;6.418;2023-08-01T00:04:04;18.40;99.90
12115;DHT22;6121;49.810;6.418;2023-08-01T00:06:31;18.30;99.90
12115;DHT22;6121;49.810;6.418;2023-08-01T00:08:57;18.30;99.90
12115;DHT22;6121;49.810;6.418;2023-08-01T00:11:23;18.30;99.90
12115;DHT22;6121;49.810;6.418;2023-08-01T00:13:49;18.30;99.90
12115;DHT22;6121;49.810;6.418;2023-08-01T00:16:14;18.30;99.90
12115;DHT22;6121;49.810;6.418;2023-08-01T00:18:40;18.30;99.90
12115;DHT22;6121;49.810;6.418;2023-08-01T00:21:06;18.30;99.90
12115;DHT22;6121;49.810;6.418;2023-08-01T00:23:35;18.30;99.90
12115;DHT22;6121;49.810;6.418;2023-08-01T00:26:02;18.30;99.90
12115;DHT22;6121;49.810;6.418;2023-08-01T00:28:28;18.30;99.90
12115;DHT22;6121;49.810;6.418;2023-08-01T00:31:08;18.30;99.90
12115;DHT22;6121;49.810;6.418;2023-08-01T00:33:36;18.30;99.90
12115;DHT22;6121;49.810;6.418;2023-08-01T00:36:02;18.30;99.90
12115;DHT22;6121;49.810;6.418;2023-08-01T00:38:28;18.30;99.90
12115;DHT22;6121;49.810;6.418;2023-08-01T00:40:54;18.30;99.90
12115;DHT22;6121;49.810;6.418;2023-08-01T00:43:20;18.30;99.90
12115;DHT22;6121;49.810;6.418;2023-08-01T00:45:46;18.30;99.90
12115;DHT22;6121;49.810;6.418;2023-08-01T00:48:12;18.30;99.90
12115;DHT22;6121;49.810;6.418;2023-08-01T00:50:39;18.30;99.90
12115;DHT22;6121;49.810;6.418;2023-08-01T00:53:05;18.30;99.90
12115;DHT22;6121;49.810;6.418;2023-08-01T00:55:32;18.30;99.90
12115;DHT22;6121;49.810;6.418;2023-08-01T00:57:59;18.30;99.90
12115;DHT22;6121;49.810;6.418;2023-08-01T01:00:25;18.30;99.90
12115;DHT22;6121;49.810;6.418;2023-08-01T01:02:51;18.30;99.90
12115;DHT22;6121;49.810;6.418;2023-08-01T01:05:17;18.40;99.90
12115;DHT22;6121;49.810;6.418;2023-08-01T01:07:44;18.50;99.90
12115;DHT22;6121;49.810;6.418;2023-08-01T01:10:10;18.40;99.90
12115;DHT22;6121;49.810;6.418;2023-08-01T01:12:36;18.30;99.90
12115;DHT22;6121;49.810;6.418;2023-08-01T01:15:02;18.50;99.90
12115;DHT22;6121;49.810;6.418;2023-08-01T01:17:28;18.40;99.90
12115;DHT22;6121;49.810;6.418;2023-08-01T01:19:53;18.40;99.90
12115;DHT22;6121;49.810;6.418;2023-08-01T01:22:20;18.70;99.90
12115;DHT22;6121;49.810;6.418;2023-08-01T01:24:46;18.40;99.90
12115;DHT22;6121;49.810;6.418;2023-08-01T01:27:13;18.40;99.90
12115;DHT22;6121;49.810;6.418;2023-08-01T01:29:43;18.40;99.90
12115;DHT22;6121;49.810;6.418;2023-08-01T01:32:10;18.40;99.90
12115;DHT22;6121;49.810;6.418;2023-08-01T01:34:37;18.70;99.90
12115;DHT22;6121;49.810;6.418;2023-08-01T01:37:04;18.40;99.90
12115;DHT22;6121;49.810;6.418;2023-08-01T01:39:30;18.50;99.90
12115;DHT22;6121;49.810;6.418;2023-08-01T01:41:55;18.40;99.90
12115;DHT22;6121;49.810;6.418;2023-08-01T01:44:21;18.40;99.90
12115;DHT22;6121;49.810;6.418;2023-08-01T01:46:47;18.40;99.90
12115;DHT22;6121;49.810;6.418;2023-08-01T01:49:15;18.40;99.90
12115;DHT22;6121;49.810;6.418;2023-08-01T01:51:41;18.50;99.90
12115;DHT22;6121;49.810;6.418;2023-08-01T01:54:06;18.50;99.90
12115;DHT22;6121;49.810;6.418;2023-08-01T01:56:32;18.30;99.90
12115;DHT22;6121;49.810;6.418;2023-08-01T01:58:59;18.40;99.90
12115;DHT22;6121;49.810;6.418;2023-08-01T02:01:25;18.50;99.90
12115;DHT22;6121;49.810;6.418;2023-08-01T02:03:50;18.50;99.90
12115;DHT22;6121;49.810;6.418;2023-08-01T02:06:17;18.50;99.90
12115;DHT22;6121;49.810;6.418;2023-08-01T02:08:43;18.50;99.90
12115;DHT22;6121;49.810;6.418;2023-08-01T02:11:09;18.50;99.90
12115;DHT22;6121;49.810;6.418;2023-08-01T02:13:35;18.60;99.90
12115;DHT22;6121;49.810;6.418;2023-08-01T02:16:01;18.50;99.90
12115;DHT22;6121;49.810;6.418;2023-08-01T02:18:26;18.60;99.90
12115;DHT22;6121;49.810;6.418;2023-08-01T02:20:52;18.50;99.90
12115;DHT22;6121;49.810;6.418;2023-08-01T02:23:19;18.50;99.90
12115;DHT22;6121;49.810;6.418;2023-08-01T02:25:45;18.50;99.90
12115;DHT22;6121;49.810;6.418;2023-08-01T02:28:11;18.50;99.90
12115;DHT22;6121;49.810;6.418;2023-08-01T02:30:38;18.50;99.90
12115;DHT22;6121;49.810;6.418;2023-08-01T02:33:04;18.40;99.90
12115;DHT22;6121;49.810;6.418;2023-08-01T02:35:31;18.40;99.90
12115;DHT22;6121;49.810;6.418;2023-08-01T02:37:56;18.50;99.90
12115;DHT22;6121;49.810;6.418;2023-08-01T02:40:22;18.50;99.90
12115;DHT22;6121;49.810;6.418;2023-08-01T02:42:48;18.40;99.90
12115;DHT22;6121;49.810;6.418;2023-08-01T02:45:14;18.40;99.90
12115;DHT22;6121;49.810;6.418;2023-08-01T02:47:40;18.40;99.90
12115;DHT22;6121;49.810;6.418;2023-08-01T02:50:06;18.40;99.90
12115;DHT22;6121;49.810;6.418;2023-08-01T02:52:32;18.50;99.90
12115;DHT22;6121;49.810;6.418;2023-08-01T02:54:58;18.50;99.90
12115;DHT22;6121;49.810;6.418;2023-08-01T02:57:24;18.50;99.90
12115;DHT22;6121;49.810;6.418;2023-08-01T02:59:50;18.50;99.90
12115;DHT22;6121;49.810;6.418;2023-08-01T03:02:16;18.30;99.90
12115;DHT22;6121;49.810;6.418;2023-08-01T03:04:42;18.40;99.90
12115;DHT22;6121;49.810;6.418;2023-08-01T03:07:07;18.40;99.90
12115;DHT22;6121;49.810;6.418;2023-08-01T03:09:33;18.40;99.90
12115;DHT22;6121;49.810;6.418;2023-08-01T03:11:59;18.40;99.90
12115;DHT22;6121;49.810;6.418;2023-08-01T03:14:25;18.40;99.90
12115;DHT22;6121;49.810;6.418;2023-08-01T03:16:50;18.40;99.90
12115;DHT22;6121;49.810;6.418;2023-08-01T03:19:16;18.50;99.90
12115;DHT22;6121;49.810;6.418;2023-08-01T03:21:42;18.40;99.90
12115;DHT22;6121;49.810;6.418;2023-08-01T03:24:08;18.40;99.90
12115;DHT22;6121;49.810;6.418;2023-08-01T03:26:35;18.40;99.90
12115;DHT22;6121;49.810;6.418;2023-08-01T03:29:01;18.30;99.90
12115;DHT22;6121;49.810;6.418;2023-08-01T03:31:27;18.30;99.90
12115;DHT22;6121;49.810;6.418;2023-08-01T03:33:53;18.30;99.90
12115;DHT22;6121;49.810;6.418;2023-08-01T03:36:19;18.40;99.90
12115;DHT22;6121;49.810;6.418;2023-08-01T03:38:46;18.40;99.90
12115;DHT22;6121;49.810;6.418;2023-08-01T03:41:13;18.30;99.90
12115;DHT22;6121;49.810;6.418;2023-08-01T03:43:39;18.30;99.90
12115;DHT22;6121;49.810;6.418;2023-08-01T03:46:06;18.30;99.90
12115;DHT22;6121;49.810;6.418;2023-08-01T03:48:32;18.40;99.90
12115;DHT22;6121;49.810;6.418;2023-08-01T03:50:58;18.40;99.90
12115;DHT22;6121;49.810;6.418;2023-08-01T03:53:26;18.40;99.90
12115;DHT22;6121;49.810;6.418;2023-08-01T03:55:53;18.40;99.90
12115;DHT22;6121;49.810;6.418;2023-08-01T03:58:19;18.40;99.90
12115;DHT22;6121;49.810;6.418;2023-08-01T04:00:44;18.30;99.90
12115;DHT22;6121;49.810;6.418;2023-08-01T04:03:11;18.30;99.90
12115;DHT22;6121;49.810;6.418;2023-08-01T04:05:37;18.30;99.90
12115;DHT22;6121;49.810;6.418;2023-08-01T04:08:03;18.30;99.90
12115;DHT22;6121;49.810;6.418;2023-08-01T04:10:29;18.30;99.90
12115;DHT22;6121;49.810;6.418;2023-08-01T04:12:55;18.30;99.90
12115;DHT22;6121;49.810;6.418;2023-08-01T04:15:21;18.30;99.90
12115;DHT22;6121;49.810;6.418;2023-08-01T04:17:46;18.30;99.90
12115;DHT22;6121;49.810;6.418;2023-08-01T04:20:13;18.30;99.90
12115;DHT22;6121;49.810;6.418;2023-08-01T04:22:39;18.30;99.90
12115;DHT22;6121;49.810;6.418;2023-08-01T04:25:05;18.30;99.90
12115;DHT22;6121;49.810;6.418;2023-08-01T04:27:31;18.30;99.90
12115;DHT22;6121;49.810;6.418;2023-08-01T04:29:57;18.30;99.90
12115;DHT22;6121;49.810;6.418;2023-08-01T04:32:23;18.30;99.90
12115;DHT22;6121;49.810;6.418;2023-08-01T04:34:49;18.30;99.90
12115;DHT22;6121;49.810;6.418;2023-08-01T04:37:15;18.30;99.90
12115;DHT22;6121;49.810;6.418;2023-08-01T04:39:40;18.30;99.90
12115;DHT22;6121;49.810;6.418;2023-08-01T04:42:06;18.30;99.90
12115;DHT22;6121;49.810;6.418;2023-08-01T04:44:32;18.30;99.90
12115;DHT22;6121;49.810;6.418;2023-08-01T04:46:58;18.30;99.90
12115;DHT22;6121;49.810;6.418;2023-08-01T04:49:24;18.30;99.90
12115;DHT22;6121;49.810;6.418;2023-08-01T04:51:51;18.30;99.90
12115;DHT22;6121;49.810;6.418;2023-08-01T04:54:20;18.30;99.90
12115;DHT22;6121;49.810;6.418;2023-08-01T04:56:45;18.40;99.90
12115;DHT22;6121;49.810;6.418;2023-08-01T04:59:12;18.30;99.90
12115;DHT22;6121;49.810;6.418;2023-08-01T05:01:38;18.40;99.90
12115;DHT22;6121;49.810;6.418;2023-08-01T05:04:04;18.40;99.90
12115;DHT22;6121;49.810;6.418;2023-08-01T05:06:30;18.40;99.90
12115;DHT22;6121;49.810;6.418;2023-08-01T05:08:55;18.40;99.90
12115;DHT22;6121;49.810;6.418;2023-08-01T05:11:21;18.40;99.90
12115;DHT22;6121;49.810;6.418;2023-08-01T05:13:48;18.40;99.90
12115;DHT22;6121;49.810;6.418;2023-08-01T05:16:14;18.20;99.90
12115;DHT22;6121;49.810;6.418;2023-08-01T05:18:40;18.30;99.90
12115;DHT22;6121;49.810;6.418;2023-08-01T05:21:05;18.30;99.90
12115;DHT22;6121;49.810;6.418;2023-08-01T05:23:31;18.20;99.90
12115;DHT22;6121;49.810;6.418;2023-08-01T05:25:57;18.10;99.90
12115;DHT22;6121;49.810;6.418;2023-08-01T05:28:23;18.20;99.90
12115;DHT22;6121;49.810;6.418;2023-08-01T05:30:49;18.10;99.90
12115;DHT22;6121;49.810;6.418;2023-08-01T05:33:15;18.10;99.90
12115;DHT22;6121;49.810;6.418;2023-08-01T05:35:40;18.20;99.90
12115;DHT22;6121;49.810;6.418;2023-08-01T05:38:06;18.30;99.90
12115;DHT22;6121;49.810;6.418;2023-08-01T05:40:32;18.10;99.90
12115;DHT22;6121;49.810;6.418;2023-08-01T05:42:58;18.20;99.90
12115;DHT22;6121;49.810;6.418;2023-08-01T05:45:24;18.20;99.90
12115;DHT22;6121;49.810;6.418;2023-08-01T05:47:50;18.20;99.90
12115;DHT22;6121;49.810;6.418;2023-08-01T05:50:16;18.10;99.90
12115;DHT22;6121;49.810;6.418;2023-08-01T05:52:41;18.10;99.90
12115;DHT22;6121;49.810;6.418;2023-08-01T05:55:07;18.00;99.90
12115;DHT22;6121;49.810;6.418;2023-08-01T05:57:34;17.90;99.90
12115;DHT22;6121;49.810;6.418;2023-08-01T06:00:00;17.90;99.90
12115;DHT22;6121;49.810;6.418;2023-08-01T06:02:25;17.90;99.90
12115;DHT22;6121;49.810;6.418;2023-08-01T06:04:51;18.00;99.90
12115;DHT22;6121;49.810;6.418;2023-08-01T06:07:17;18.20;99.90
12115;DHT22;6121;49.810;6.418;2023-08-01T06:09:49;18.40;99.90
12115;DHT22;6121;49.810;6.418;2023-08-01T06:12:18;18.40;99.90
12115;DHT22;6121;49.810;6.418;2023-08-01T06:14:44;18.30;99.90
12115;DHT22;6121;49.810;6.418;2023-08-01T06:17:10;18.40;99.90
12115;DHT22;6121;49.810;6.418;2023-08-01T06:19:36;18.70;99.90
12115;DHT22;6121;49.810;6.418;2023-08-01T06:22:02;18.80;99.90
12115;DHT22;6121;49.810;6.418;2023-08-01T06:24:28;18.90;99.90
12115;DHT22;6121;49.810;6.418;2023-08-01T06:26:53;19.00;99.90
12115;DHT22;6121;49.810;6.418;2023-08-01T06:29:19;19.20;99.90
12115;DHT22;6121;49.810;6.418;2023-08-01T06:31:45;19.20;99.90
12115;DHT22;6121;49.810;6.418;2023-08-01T06:34:11;19.40;99.90
12115;DHT22;6121;49.810;6.418;2023-08-01T06:36:36;19.30;99.90
12115;DHT22;6121;49.810;6.418;2023-08-01T06:39:02;19.60;99.90
12115;DHT22;6121;49.810;6.418;2023-08-01T06:41:29;19.80;99.90
12115;DHT22;6121;49.810;6.418;2023-08-01T06:43:55;19.90;99.90
12115;DHT22;6121;49.810;6.418;2023-08-01T06:46:20;19.90;99.90
12115;DHT22;6121;49.810;6.418;2023-08-01T06:48:46;20.00;99.90
12115;DHT22;6121;49.810;6.418;2023-08-01T06:51:12;20.10;99.90
12115;DHT22;6121;49.810;6.418;2023-08-01T06:53:37;20.10;99.90
12115;DHT22;6121;49.810;6.418;2023-08-01T06:56:03;20.30;99.90
12115;DHT22;6121;49.810;6.418;2023-08-01T06:58:29;20.40;99.90
12115;DHT22;6121;49.810;6.418;2023-08-01T07:00:55;20.60;99.90
12115;DHT22;6121;49.810;6.418;2023-08-01T07:03:21;20.90;99.90
12115;DHT22;6121;49.810;6.418;2023-08-01T07:05:47;21.10;99.90
12115;DHT22;6121;49.810;6.418;2023-08-01T07:08:13;21.10;99.90
12115;DHT22;6121;49.810;6.418;2023-08-01T07:10:38;21.00;99.90
12115;DHT22;6121;49.810;6.418;2023-08-01T07:13:04;21.20;99.90
12115;DHT22;6121;49.810;6.418;2023-08-01T07:15:31;21.30;99.90
12115;DHT22;6121;49.810;6.418;2023-08-01T07:17:57;21.30;99.90
12115;DHT22;6121;49.810;6.418;2023-08-01T07:20:23;21.20;99.90
12115;DHT22;6121;49.810;6.418;2023-08-01T07:22:48;21.10;99.90
12115;DHT22;6121;49.810;6.418;2023-08-01T07:25:14;21.50;99.90
12115;DHT22;6121;49.810;6.418;2023-08-01T07:27:42;21.70;99.90
12115;DHT22;6121;49.810;6.418;2023-08-01T07:30:08;21.90;99.90
12115;DHT22;6121;49.810;6.418;2023-08-01T07:32:36;21.80;99.90
12115;DHT22;6121;49.810;6.418;2023-08-01T07:35:06;21.60;99.90
12115;DHT22;6121;49.810;6.418;2023-08-01T07:37:35;21.40;99.90
12115;DHT22;6121;49.810;6.418;2023-08-01T07:40:05;21.30;99.90
12115;DHT22;6121;49.810;6.418;2023-08-01T07:42:31;21.20;99.90
12115;DHT22;6121;49.810;6.418;2023-08-01T07:44:56;21.10;99.90
12115;DHT22;6121;49.810;6.418;2023-08-01T07:47:22;21.10;99.90
12115;DHT22;6121;49.810;6.418;2023-08-01T07:49:50;21.20;99.90
12115;DHT22;6121;49.810;6.418;2023-08-01T07:52:16;21.60;99.90
12115;DHT22;6121;49.810;6.418;2023-08-01T07:54:42;21.90;99.90
12115;DHT22;6121;49.810;6.418;2023-08-01T07:57:09;22.20;99.90
12115;DHT22;6121;49.810;6.418;2023-08-01T07:59:34;22.50;99.90
12115;DHT22;6121;49.810;6.418;2023-08-01T08:02:00;22.70;99.90
12115;DHT22;6121;49.810;6.418;2023-08-01T08:04:26;22.60;99.90
12115;DHT22;6121;49.810;6.418;2023-08-01T08:06:52;22.50;99.90
12115;DHT22;6121;49.810;6.418;2023-08-01T08:09:20;22.50;99.90
12115;DHT22;6121;49.810;6.418;2023-08-01T08:11:48;22.50;99.90
12115;DHT22;6121;49.810;6.418;2023-08-01T08:14:15;22.40;99.90
12115;DHT22;6121;49.810;6.418;2023-08-01T08:16:41;22.20;99.90
12115;DHT22;6121;49.810;6.418;2023-08-01T08:19:08;22.00;99.90
12115;DHT22;6121;49.810;6.418;2023-08-01T08:21:35;21.80;99.90
12115;DHT22;6121;49.810;6.418;2023-08-01T08:24:00;21.60;99.90
12115;DHT22;6121;49.810;6.418;2023-08-01T08:26:26;21.40;99.90
12115;DHT22;6121;49.810;6.418;2023-08-01T08:28:53;21.60;99.90
12115;DHT22;6121;49.810;6.418;2023-08-01T08:31:18;21.70;99.90
12115;DHT22;6121;49.810;6.418;2023-08-01T08:33:44;22.00;99.90
12115;DHT22;6121;49.810;6.418;2023-08-01T08:36:10;21.80;99.90
12115;DHT22;6121;49.810;6.418;2023-08-01T08:38:36;21.70;99.90
12115;DHT22;6121;49.810;6.418;2023-08-01T08:43:35;21.80;99.90
12115;DHT22;6121;49.810;6.418;2023-08-01T08:46:02;22.20;99.90
12115;DHT22;6121;49.810;6.418;2023-08-01T08:48:28;22.50;99.90
12115;DHT22;6121;49.810;6.418;2023-08-01T08:50:57;22.60;99.90
12115;DHT22;6121;49.810;6.418;2023-08-01T08:53:24;22.70;99.90
12115;DHT22;6121;49.810;6.418;2023-08-01T08:55:50;22.70;99.90
12115;DHT22;6121;49.810;6.418;2023-08-01T08:58:16;22.90;99.90
12115;DHT22;6121;49.810;6.418;2023-08-01T09:00:44;23.10;99.90
12115;DHT22;6121;49.810;6.418;2023-08-01T09:03:10;23.10;99.90
12115;DHT22;6121;49.810;6.418;2023-08-01T09:06:04;23.20;99.90
12115;DHT22;6121;49.810;6.418;2023-08-01T09:08:32;23.70;99.90
12115;DHT22;6121;49.810;6.418;2023-08-01T09:11:00;23.80;99.90
12115;DHT22;6121;49.810;6.418;2023-08-01T09:13:26;23.80;99.90
12115;DHT22;6121;49.810;6.418;2023-08-01T09:15:52;23.60;99.90
12115;DHT22;6121;49.810;6.418;2023-08-01T09:18:18;24.00;99.90
12115;DHT22;6121;49.810;6.418;2023-08-01T09:20:46;24.30;99.90
12115;DHT22;6121;49.810;6.418;2023-08-01T09:23:13;24.50;99.90
12115;DHT22;6121;49.810;6.418;2023-08-01T09:25:39;24.70;99.90
12115;DHT22;6121;49.810;6.418;2023-08-01T09:28:16;25.00;99.90
12115;DHT22;6121;49.810;6.418;2023-08-01T09:30:49;25.50;99.90
12115;DHT22;6121;49.810;6.418;2023-08-01T09:33:16;25.70;99.90
12115;DHT22;6121;49.810;6.418;2023-08-01T09:35:42;25.10;99.90
12115;DHT22;6121;49.810;6.418;2023-08-01T09:38:15;24.80;99.90
12115;DHT22;6121;49.810;6.418;2023-08-01T09:40:42;24.00;99.90
12115;DHT22;6121;49.810;6.418;2023-08-01T09:43:10;24.10;99.90
12115;DHT22;6121;49.810;6.418;2023-08-01T09:45:36;24.50;99.90
12115;DHT22;6121;49.810;6.418;2023-08-01T09:48:05;24.90;99.90
12115;DHT22;6121;49.810;6.418;2023-08-01T09:50:31;24.60;99.90
12115;DHT22;6121;49.810;6.418;2023-08-01T09:53:07;24.60;99.90
12115;DHT22;6121;49.810;6.418;2023-08-01T09:55:33;25.20;99.90
12115;DHT22;6121;49.810;6.418;2023-08-01T09:58:00;25.70;99.90
12115;DHT22;6121;49.810;6.418;2023-08-01T10:00:27;26.30;99.90
12115;DHT22;6121;49.810;6.418;2023-08-01T10:02:58;26.90;99.30
12115;DHT22;6121;49.810;6.418;2023-08-01T10:05:30;27.10;98.70
12115;DHT22;6121;49.810;6.418;2023-08-01T10:08:01;27.10;98.40
12115;DHT22;6121;49.810;6.418;2023-08-01T10:10:28;26.90;97.70
12115;DHT22;6121;49.810;6.418;2023-08-01T10:12:56;27.00;97.80
12115;DHT22;6121;49.810;6.418;2023-08-01T10:15:24;27.30;97.10
12115;DHT22;6121;49.810;6.418;2023-08-01T10:17:51;26.70;96.80
12115;DHT22;6121;49.810;6.418;2023-08-01T10:20:16;26.40;98.30
12115;DHT22;6121;49.810;6.418;2023-08-01T10:22:44;26.10;98.30
12115;DHT22;6121;49.810;6.418;2023-08-01T10:25:10;26.90;98.20
12115;DHT22;6121;49.810;6.418;2023-08-01T10:27:37;27.10;97.60
12115;DHT22;6121;49.810;6.418;2023-08-01T10:30:04;27.90;97.00
12115;DHT22;6121;49.810;6.418;2023-08-01T10:34:58;29.00;95.30
12115;DHT22;6121;49.810;6.418;2023-08-01T10:37:24;29.20;94.30
12115;DHT22;6121;49.810;6.418;2023-08-01T10:39:57;29.60;92.70
12115;DHT22;6121;49.810;6.418;2023-08-01T10:42:23;29.80;91.80
12115;DHT22;6121;49.810;6.418;2023-08-01T10:44:49;29.90;91.80
12115;DHT22;6121;49.810;6.418;2023-08-01T10:47:25;29.60;90.60
12115;DHT22;6121;49.810;6.418;2023-08-01T10:49:52;29.00;91.00
12115;DHT22;6121;49.810;6.418;2023-08-01T10:52:19;28.10;91.80
12115;DHT22;6121;49.810;6.418;2023-08-01T10:54:46;27.60;92.30
12115;DHT22;6121;49.810;6.418;2023-08-01T10:57:18;27.90;92.70
12115;DHT22;6121;49.810;6.418;2023-08-01T10:59:44;27.80;92.60
12115;DHT22;6121;49.810;6.418;2023-08-01T11:02:10;27.40;92.90
12115;DHT22;6121;49.810;6.418;2023-08-01T11:04:36;27.30;93.60
12115;DHT22;6121;49.810;6.418;2023-08-01T11:07:04;27.70;94.00
12115;DHT22;6121;49.810;6.418;2023-08-01T11:09:30;27.90;93.20
12115;DHT22;6121;49.810;6.418;2023-08-01T11:11:57;27.70;93.00
12115;DHT22;6121;49.810;6.418;2023-08-01T11:14:25;27.10;93.30
12115;DHT22;6121;49.810;6.418;2023-08-01T11:16:54;27.10;93.90
12115;DHT22;6121;49.810;6.418;2023-08-01T11:19:29;26.90;93.60
12115;DHT22;6121;49.810;6.418;2023-08-01T11:21:56;26.70;93.90
12115;DHT22;6121;49.810;6.418;2023-08-01T11:24:24;26.60;93.70
12115;DHT22;6121;49.810;6.418;2023-08-01T11:26:51;27.20;93.80
12115;DHT22;6121;49.810;6.418;2023-08-01T11:29:18;27.80;93.30
12115;DHT22;6121;49.810;6.418;2023-08-01T11:31:54;28.10;92.80
12115;DHT22;6121;49.810;6.418;2023-08-01T11:34:20;27.80;92.40
12115;DHT22;6121;49.810;6.418;2023-08-01T11:36:47;28.20;92.90
12115;DHT22;6121;49.810;6.418;2023-08-01T11:39:14;28.20;92.50
12115;DHT22;6121;49.810;6.418;2023-08-01T11:41:42;28.20;92.30
12115;DHT22;6121;49.810;6.418;2023-08-01T11:44:08;28.10;91.80
12115;DHT22;6121;49.810;6.418;2023-08-01T11:46:37;27.90;92.40
12115;DHT22;6121;49.810;6.418;2023-08-01T11:49:04;27.20;92.20
12115;DHT22;6121;49.810;6.418;2023-08-01T11:51:42;27.40;92.20
12115;DHT22;6121;49.810;6.418;2023-08-01T11:54:09;27.20;92.20
12115;DHT22;6121;49.810;6.418;2023-08-01T11:56:37;26.60;93.50
12115;DHT22;6121;49.810;6.418;2023-08-01T11:59:15;26.80;93.10
12115;DHT22;6121;49.810;6.418;2023-08-01T12:01:45;27.10;92.70
12115;DHT22;6121;49.810;6.418;2023-08-01T12:04:12;27.40;92.80
12115;DHT22;6121;49.810;6.418;2023-08-01T12:06:38;27.10;92.80
12115;DHT22;6121;49.810;6.418;2023-08-01T12:09:12;27.10;92.20
12115;DHT22;6121;49.810;6.418;2023-08-01T12:11:40;26.70;92.40
12115;DHT22;6121;49.810;6.418;2023-08-01T12:16:35;26.40;92.50
12115;DHT22;6121;49.810;6.418;2023-08-01T12:19:01;26.30;92.70
12115;DHT22;6121;49.810;6.418;2023-08-01T12:21:28;26.60;92.80
12115;DHT22;6121;49.810;6.418;2023-08-01T12:23:54;26.60;92.80
12115;DHT22;6121;49.810;6.418;2023-08-01T12:26:20;26.50;93.40
12115;DHT22;6121;49.810;6.418;2023-08-01T12:28:46;26.60;93.20
12115;DHT22;6121;49.810;6.418;2023-08-01T12:31:16;26.60;93.30
12115;DHT22;6121;49.810;6.418;2023-08-01T12:33:43;26.60;93.30
12115;DHT22;6121;49.810;6.418;2023-08-01T12:36:08;26.80;93.10
12115;DHT22;6121;49.810;6.418;2023-08-01T12:38:34;26.90;92.70
12115;DHT22;6121;49.810;6.418;2023-08-01T12:41:01;26.70;92.60
12115;DHT22;6121;49.810;6.418;2023-08-01T12:43:27;26.70;92.90
12115;DHT22;6121;49.810;6.418;2023-08-01T12:45:53;26.60;92.30
12115;DHT22;6121;49.810;6.418;2023-08-01T12:48:19;26.50;92.80
12115;DHT22;6121;49.810;6.418;2023-08-01T12:50:45;26.10;92.80
12115;DHT22;6121;49.810;6.418;2023-08-01T12:53:12;25.90;93.20
12115;DHT22;6121;49.810;6.418;2023-08-01T12:55:38;25.60;93.90
12115;DHT22;6121;49.810;6.418;2023-08-01T12:58:03;25.20;93.50
12115;DHT22;6121;49.810;6.418;2023-08-01T13:00:30;25.30;94.40
12115;DHT22;6121;49.810;6.418;2023-08-01T13:02:56;25.00;95.90
12115;DHT22;6121;49.810;6.418;2023-08-01T13:05:22;24.60;95.90
12115;DHT22;6121;49.810;6.418;2023-08-01T13:07:47;24.40;96.80
12115;DHT22;6121;49.810;6.418;2023-08-01T13:10:15;24.40;97.00
12115;DHT22;6121;49.810;6.418;2023-08-01T13:12:41;24.40;97.80
12115;DHT22;6121;49.810;6.418;2023-08-01T13:15:07;24.50;97.60
12115;DHT22;6121;49.810;6.418;2023-08-01T13:17:34;24.10;99.10
12115;DHT22;6121;49.810;6.418;2023-08-01T13:20:00;23.60;99.60
12115;DHT22;6121;49.810;6.418;2023-08-01T13:22:26;23.20;99.90
12115;DHT22;6121;49.810;6.418;2023-08-01T13:24:51;23.00;99.90
12115;DHT22;6121;49.810;6.418;2023-08-01T13:27:17;23.10;99.90
12115;DHT22;6121;49.810;6.418;2023-08-01T13:29:43;23.10;99.90
12115;DHT22;6121;49.810;6.418;2023-08-01T13:32:09;23.20;99.90
12115;DHT22;6121;49.810;6.418;2023-08-01T13:34:34;22.70;99.90
12115;DHT22;6121;49.810;6.418;2023-08-01T13:37:00;22.50;99.90
12115;DHT22;6121;49.810;6.418;2023-08-01T13:39:26;22.60;99.90
12115;DHT22;6121;49.810;6.418;2023-08-01T13:41:52;22.70;99.90
12115;DHT22;6121;49.810;6.418;2023-08-01T13:44:17;23.00;99.90
12115;DHT22;6121;49.810;6.418;2023-08-01T13:46:43;23.10;99.90
12115;DHT22;6121;49.810;6.418;2023-08-01T13:49:09;23.30;99.90
12115;DHT22;6121;49.810;6.418;2023-08-01T13:51:34;23.50;99.90
12115;DHT22;6121;49.810;6.418;2023-08-01T13:54:00;23.50;99.90
12115;DHT22;6121;49.810;6.418;2023-08-01T13:56:26;23.40;99.90
12115;DHT22;6121;49.810;6.418;2023-08-01T13:58:52;23.30;99.90
12115;DHT22;6121;49.810;6.418;2023-08-01T14:01:18;23.30;99.90
12115;DHT22;6121;49.810;6.418;2023-08-01T14:03:45;23.10;99.90
12115;DHT22;6121;49.810;6.418;2023-08-01T14:06:13;22.90;99.90
12115;DHT22;6121;49.810;6.418;2023-08-01T14:08:39;22.80;99.90
12115;DHT22;6121;49.810;6.418;2023-08-01T14:11:07;22.80;99.90
12115;DHT22;6121;49.810;6.418;2023-08-01T14:13:33;22.90;99.90
12115;DHT22;6121;49.810;6.418;2023-08-01T14:16:00;23.10;99.90
12115;DHT22;6121;49.810;6.418;2023-08-01T14:18:30;23.10;99.90
12115;DHT22;6121;49.810;6.418;2023-08-01T14:20:56;22.90;99.90
12115;DHT22;6121;49.810;6.418;2023-08-01T14:23:22;23.10;99.30
12115;DHT22;6121;49.810;6.418;2023-08-01T14:25:48;23.20;99.90
12115;DHT22;6121;49.810;6.418;2023-08-01T14:28:14;22.90;99.90
12115;DHT22;6121;49.810;6.418;2023-08-01T14:30:40;22.70;99.90
12115;DHT22;6121;49.810;6.418;2023-08-01T14:33:09;22.50;99.90
12115;DHT22;6121;49.810;6.418;2023-08-01T14:35:37;22.50;99.90
12115;DHT22;6121;49.810;6.418;2023-08-01T14:38:03;22.40;99.90
12115;DHT22;6121;49.810;6.418;2023-08-01T14:40:29;22.30;99.90
12115;DHT22;6121;49.810;6.418;2023-08-01T14:42:56;22.20;99.90
12115;DHT22;6121;49.810;6.418;2023-08-01T14:45:22;22.20;99.90
12115;DHT22;6121;49.810;6.418;2023-08-01T14:47:48;22.10;99.90
12115;DHT22;6121;49.810;6.418;2023-08-01T14:50:14;22.20;99.90
12115;DHT22;6121;49.810;6.418;2023-08-01T14:52:40;22.30;99.90
12115;DHT22;6121;49.810;6.418;2023-08-01T14:55:07;22.30;99.90
12115;DHT22;6121;49.810;6.418;2023-08-01T14:57:33;22.10;99.90
12115;DHT22;6121;49.810;6.418;2023-08-01T14:59:59;22.20;99.90
12115;DHT22;6121;49.810;6.418;2023-08-01T15:02:26;22.00;99.90
12115;DHT22;6121;49.810;6.418;2023-08-01T15:04:56;21.70;99.90
12115;DHT22;6121;49.810;6.418;2023-08-01T15:07:26;21.40;99.90
12115;DHT22;6121;49.810;6.418;2023-08-01T15:09:52;21.40;99.90
12115;DHT22;6121;49.810;6.418;2023-08-01T15:12:20;21.10;99.90
12115;DHT22;6121;49.810;6.418;2023-08-01T15:14:50;20.80;99.90
12115;DHT22;6121;49.810;6.418;2023-08-01T15:17:16;20.80;99.90
12115;DHT22;6121;49.810;6.418;2023-08-01T15:19:42;20.70;99.90
12115;DHT22;6121;49.810;6.418;2023-08-01T15:22:09;20.70;99.90
12115;DHT22;6121;49.810;6.418;2023-08-01T15:24:35;20.80;99.90
12115;DHT22;6121;49.810;6.418;2023-08-01T15:27:01;20.50;99.90
12115;DHT22;6121;49.810;6.418;2023-08-01T15:29:27;20.30;99.90
12115;DHT22;6121;49.810;6.418;2023-08-01T15:31:52;20.30;99.90
12115;DHT22;6121;49.810;6.418;2023-08-01T15:34:19;20.50;99.90
12115;DHT22;6121;49.810;6.418;2023-08-01T15:36:48;20.40;99.90
12115;DHT22;6121;49.810;6.418;2023-08-01T15:39:15;20.50;99.90
12115;DHT22;6121;49.810;6.418;2023-08-01T15:41:40;20.70;99.90
12115;DHT22;6121;49.810;6.418;2023-08-01T15:44:06;20.80;99.90
12115;DHT22;6121;49.810;6.418;2023-08-01T15:46:35;20.90;99.90
12115;DHT22;6121;49.810;6.418;2023-08-01T15:49:01;20.90;99.90